Time;durP1;ratioP1;P1;durP2;ratioP2;P2;SDS_P1;SDS_P2;PMS_P1;PMS_P2;Temp;Humidity;BMP_temperature;BMP_pressure;BME280_temperature;BME280_humidity;BME280_pressure;Samples;Min_cycle;Max_cycle;Signal;HPM_P1;HPM_P2
2022/04/06 00:00:31;;;;;;;30.92;10.23;;;;;;;;;;5036020;28;20025;-77
2022/04/06 00:02:58;;;;;;;33.20;11.93;;;;;;;;;;5036606;28;20033;-78
2022/04/06 00:05:23;;;;;;;32.70;11.45;;;;;;;;;;5036505;28;20037;-77
2022/04/06 00:07:49;;;;;;;30.73;11.63;;;;;;;;;;5036074;28;20375;-78
2022/04/06 00:10:14;;;;;;;29.85;11.48;;;;;;;;;;5036293;28;20033;-77
2022/04/06 00:12:40;;;;;;;30.95;11.15;;;;;;;;;;5036103;28;20029;-77
2022/04/06 00:15:07;;;;;;;39.70;12.90;;;;;;;;;;5018609;28;20130;-77
2022/04/06 00:17:33;;;;;;;28.45;12.05;;;;;;;;;;5036213;28;20041;-78
2022/04/06 00:19:58;;;;;;;32.60;12.00;;;;;;;;;;5035681;28;20029;-78
2022/04/06 00:22:24;;;;;;;32.47;12.82;;;;;;;;;;5036408;28;20040;-77
2022/04/06 00:24:49;;;;;;;33.17;12.38;;;;;;;;;;5035201;28;20029;-77
2022/04/06 00:27:15;;;;;;;34.33;13.82;;;;;;;;;;5035946;28;20037;-78
2022/04/06 00:29:40;;;;;;;35.83;13.75;;;;;;;;;;5035761;28;20116;-77
2022/04/06 00:32:06;;;;;;;38.63;13.57;;;;;;;;;;5036451;28;20026;-77
2022/04/06 00:37:16;;;;;;;64.13;17.00;;;;;;;;;;5035675;28;20115;-77
2022/04/06 00:39:42;;;;;;;43.08;15.32;;;;;;;;;;5035830;28;20034;-77
2022/04/06 00:42:07;;;;;;;37.78;14.30;;;;;;;;;;5036060;28;20037;-76
2022/04/06 00:44:37;;;;;;;41.58;15.50;;;;;;;;;;5035863;28;20032;-78
2022/04/06 00:47:03;;;;;;;40.92;15.57;;;;;;;;;;5035297;28;20455;-77
2022/04/06 00:49:28;;;;;;;44.92;17.38;;;;;;;;;;5035381;28;20022;-77
2022/04/06 00:51:54;;;;;;;46.92;16.90;;;;;;;;;;5035286;28;20017;-78
2022/04/06 00:54:20;;;;;;;42.80;15.48;;;;;;;;;;5034304;28;20431;-77
2022/04/06 00:56:46;;;;;;;44.67;15.40;;;;;;;;;;5017864;28;20025;-77
2022/04/06 00:59:12;;;;;;;41.05;14.77;;;;;;;;;;5035228;28;20025;-77
2022/04/06 01:01:39;;;;;;;37.40;14.55;;;;;;;;;;5017326;28;20025;-76
2022/04/06 01:04:04;;;;;;;49.88;16.20;;;;;;;;;;5017924;28;20033;-77
2022/04/06 01:06:31;;;;;;;54.25;15.45;;;;;;;;;;5035917;28;20147;-78
2022/04/06 01:08:57;;;;;;;40.67;14.85;;;;;;;;;;5017519;28;20100;-77
2022/04/06 01:11:23;;;;;;;53.42;17.88;;;;;;;;;;5017232;28;20029;-77
2022/04/06 01:13:48;;;;;;;46.35;17.52;;;;;;;;;;5016447;28;20071;-77
2022/04/06 01:16:14;;;;;;;45.83;17.98;;;;;;;;;;5016958;28;20025;-78
2022/04/06 01:18:41;;;;;;;42.22;16.95;;;;;;;;;;5034790;28;20064;-77
2022/04/06 01:21:07;;;;;;;42.92;18.08;;;;;;;;;;5034866;28;20116;-78
2022/04/06 01:23:32;;;;;;;43.92;17.20;;;;;;;;;;5036555;28;20025;-77
2022/04/06 01:25:58;;;;;;;44.33;16.15;;;;;;;;;;5035140;28;20029;-77
2022/04/06 01:28:24;;;;;;;45.85;16.75;;;;;;;;;;5034708;28;20032;-76
2022/04/06 01:30:49;;;;;;;38.85;15.50;;;;;;;;;;5034274;28;20029;-77
2022/04/06 01:33:15;;;;;;;43.63;16.38;;;;;;;;;;5034821;28;20040;-78
2022/04/06 01:35:42;;;;;;;49.53;16.48;;;;;;;;;;5034753;28;20516;-78
2022/04/06 01:38:08;;;;;;;42.00;15.20;;;;;;;;;;5034474;28;20299;-78
2022/04/06 01:40:33;;;;;;;42.90;15.73;;;;;;;;;;5034340;28;20157;-77
2022/04/06 01:42:59;;;;;;;38.25;15.35;;;;;;;;;;5034336;28;20451;-77
2022/04/06 01:45:25;;;;;;;38.83;14.93;;;;;;;;;;5018726;28;20022;-78
2022/04/06 01:47:50;;;;;;;37.88;13.80;;;;;;;;;;5034704;28;20470;-77
2022/04/06 01:53:00;;;;;;;29.98;10.70;;;;;;;;;;5034273;28;20055;-77
2022/04/06 01:55:25;;;;;;;23.38;9.85;;;;;;;;;;5033056;28;20060;-77
2022/04/06 01:57:51;;;;;;;27.38;9.73;;;;;;;;;;5034125;28;20029;-77
2022/04/06 02:00:18;;;;;;;27.85;9.45;;;;;;;;;;5033317;28;20034;-77
2022/04/06 02:02:46;;;;;;;25.05;9.32;;;;;;;;;;5034342;28;20435;-77
2022/04/06 02:05:12;;;;;;;30.02;9.77;;;;;;;;;;5035109;28;20120;-77
2022/04/06 02:07:38;;;;;;;23.83;9.75;;;;;;;;;;5034585;28;20112;-77
2022/04/06 02:10:03;;;;;;;22.02;9.27;;;;;;;;;;5034330;28;20250;-78
2022/04/06 02:12:29;;;;;;;30.55;9.88;;;;;;;;;;5034235;28;20025;-77
2022/04/06 02:14:55;;;;;;;24.15;9.10;;;;;;;;;;5033704;28;20071;-77
2022/04/06 02:17:21;;;;;;;26.48;9.93;;;;;;;;;;5034047;28;20026;-78
2022/04/06 02:19:46;;;;;;;24.33;10.10;;;;;;;;;;5034018;28;20138;-77
2022/04/06 02:22:12;;;;;;;51.97;16.33;;;;;;;;;;5033941;28;20025;-77
2022/04/06 02:24:38;;;;;;;114.45;30.73;;;;;;;;;;5036372;28;20057;-77
2022/04/06 02:27:07;;;;;;;132.43;36.00;;;;;;;;;;5038722;28;20117;-77
2022/04/06 02:29:32;;;;;;;153.80;39.40;;;;;;;;;;5038529;28;20041;-78
2022/04/06 02:31:58;;;;;;;69.05;20.95;;;;;;;;;;5037986;28;20364;-78
2022/04/06 02:34:23;;;;;;;43.42;14.00;;;;;;;;;;5038129;28;20040;-77
2022/04/06 02:36:48;;;;;;;59.33;18.20;;;;;;;;;;5037899;28;20033;-77
2022/04/06 02:39:14;;;;;;;89.00;24.20;;;;;;;;;;5038299;28;20443;-78
2022/04/06 02:41:39;;;;;;;72.70;22.17;;;;;;;;;;5037586;28;20045;-77
2022/04/06 02:44:05;;;;;;;40.38;13.27;;;;;;;;;;5003954;28;20033;-77
2022/04/06 02:46:31;;;;;;;40.95;12.60;;;;;;;;;;5020140;28;20477;-77
2022/04/06 02:48:56;;;;;;;40.15;12.13;;;;;;;;;;5021814;28;20065;-77
2022/04/06 02:51:22;;;;;;;40.63;13.43;;;;;;;;;;5037639;28;20032;-78
2022/04/06 02:53:47;;;;;;;32.30;12.77;;;;;;;;;;5037618;28;20383;-77
2022/04/06 02:56:14;;;;;;;34.30;12.48;;;;;;;;;;5037510;28;20033;-77
2022/04/06 02:58:40;;;;;;;32.10;12.93;;;;;;;;;;5037713;28;20100;-78
2022/04/06 03:01:06;;;;;;;32.75;14.07;;;;;;;;;;5037458;28;20477;-77
2022/04/06 03:03:31;;;;;;;33.90;13.70;;;;;;;;;;5037369;28;20022;-77
2022/04/06 03:05:57;;;;;;;30.60;12.57;;;;;;;;;;5037787;28;20442;-77
2022/04/06 03:08:22;;;;;;;31.52;14.07;;;;;;;;;;5037689;28;20052;-77
2022/04/06 03:10:47;;;;;;;30.70;13.98;;;;;;;;;;5037332;28;20024;-77
2022/04/06 03:13:13;;;;;;;38.03;13.45;;;;;;;;;;5019260;28;20065;-77
2022/04/06 03:15:38;;;;;;;33.85;13.93;;;;;;;;;;5036252;28;20426;-78
2022/04/06 03:18:04;;;;;;;38.70;14.18;;;;;;;;;;5037393;28;20446;-77
2022/04/06 03:20:30;;;;;;;37.88;14.60;;;;;;;;;;5035857;28;20025;-77
2022/04/06 03:22:55;;;;;;;38.83;15.85;;;;;;;;;;5037079;28;20031;-78
2022/04/06 03:25:21;;;;;;;34.10;13.95;;;;;;;;;;5019270;28;20033;-77
2022/04/06 03:27:47;;;;;;;28.58;12.90;;;;;;;;;;5019825;28;20053;-77
2022/04/06 03:30:12;;;;;;;32.20;13.70;;;;;;;;;;5037857;28;20352;-77
2022/04/06 03:32:38;;;;;;;37.75;14.00;;;;;;;;;;5036802;28;20033;-77
2022/04/06 03:35:05;;;;;;;31.85;13.60;;;;;;;;;;5036697;28;20049;-77
2022/04/06 03:37:31;;;;;;;39.90;11.80;;;;;;;;;;5036364;28;20033;-77
2022/04/06 03:39:56;;;;;;;27.50;10.85;;;;;;;;;;5036742;28;20095;-77
2022/04/06 03:42:22;;;;;;;25.73;10.88;;;;;;;;;;5036248;28;20390;-77
2022/04/06 03:44:47;;;;;;;31.17;11.73;;;;;;;;;;5036882;28;20033;-77
2022/04/06 03:47:13;;;;;;;31.73;11.15;;;;;;;;;;5036532;28;20439;-77
2022/04/06 03:49:38;;;;;;;29.95;10.73;;;;;;;;;;5037022;28;20043;-77
2022/04/06 03:52:04;;;;;;;29.08;11.13;;;;;;;;;;5036452;28;20040;-77
2022/04/06 03:54:29;;;;;;;32.85;11.05;;;;;;;;;;5036388;28;20029;-77
2022/04/06 03:56:55;;;;;;;33.20;13.07;;;;;;;;;;5036128;28;20060;-77
2022/04/06 03:59:20;;;;;;;35.03;12.48;;;;;;;;;;5035118;28;20032;-77
2022/04/06 04:01:46;;;;;;;38.20;13.15;;;;;;;;;;5036172;28;20067;-77
2022/04/06 04:04:11;;;;;;;39.88;12.50;;;;;;;;;;5036176;28;20079;-77
2022/04/06 04:06:37;;;;;;;33.05;13.43;;;;;;;;;;5036118;28;20040;-77
2022/04/06 04:09:03;;;;;;;34.38;13.23;;;;;;;;;;5036257;28;20116;-78
2022/04/06 04:11:29;;;;;;;45.65;12.85;;;;;;;;;;5036539;28;20029;-77
2022/04/06 04:13:54;;;;;;;39.30;13.27;;;;;;;;;;5036534;28;20112;-77
2022/04/06 04:16:20;;;;;;;36.28;12.55;;;;;;;;;;5035971;28;20522;-77
2022/04/06 04:18:45;;;;;;;37.85;12.15;;;;;;;;;;5035918;28;20079;-78
2022/04/06 04:23:54;;;;;;;37.55;12.45;;;;;;;;;;5035365;28;20036;-81
2022/04/06 04:26:20;;;;;;;64.65;17.60;;;;;;;;;;5035665;28;20037;-81
2022/04/06 04:28:45;;;;;;;147.70;32.70;;;;;;;;;;5018448;28;20030;-82
2022/04/06 04:31:11;;;;;;;274.42;63.97;;;;;;;;;;5040470;28;20026;-82
2022/04/06 04:33:36;;;;;;;446.63;99.95;;;;;;;;;;5035638;28;20482;-82
2022/04/06 04:36:02;;;;;;;185.77;51.95;;;;;;;;;;5023939;28;20194;-81
2022/04/06 04:38:27;;;;;;;296.70;85.93;;;;;;;;;;5055452;28;20021;-82
2022/04/06 04:40:54;;;;;;;270.02;87.82;;;;;;;;;;5055014;28;20060;-81
2022/04/06 04:43:19;;;;;;;149.60;51.03;;;;;;;;;;5037267;28;20462;-81
2022/04/06 04:45:45;;;;;;;93.22;34.90;;;;;;;;;;5054752;28;20057;-82
2022/04/06 04:48:10;;;;;;;75.13;29.23;;;;;;;;;;5036022;28;20470;-81
2022/04/06 04:50:36;;;;;;;116.28;36.90;;;;;;;;;;5055019;28;20025;-82
2022/04/06 04:53:01;;;;;;;118.38;38.28;;;;;;;;;;5055055;28;20024;-76
2022/04/06 04:55:27;;;;;;;78.47;28.38;;;;;;;;;;5054265;28;20051;-76
2022/04/06 04:57:52;;;;;;;111.75;37.15;;;;;;;;;;5053183;28;20028;-75
2022/04/06 05:00:18;;;;;;;94.45;33.90;;;;;;;;;;5053114;28;20116;-76
2022/04/06 05:02:43;;;;;;;92.35;34.25;;;;;;;;;;5053231;28;20021;-75
2022/04/06 05:05:10;;;;;;;95.28;33.75;;;;;;;;;;5052287;28;20116;-76
2022/04/06 05:07:38;;;;;;;52.60;22.25;;;;;;;;;;5051739;28;20056;-74
2022/04/06 05:10:06;;;;;;;49.67;20.83;;;;;;;;;;5034200;28;20061;-76
2022/04/06 05:12:31;;;;;;;51.10;19.92;;;;;;;;;;5033740;28;20305;-76
2022/04/06 05:14:59;;;;;;;45.40;16.23;;;;;;;;;;5033450;28;20443;-75
2022/04/06 05:17:25;;;;;;;41.65;15.95;;;;;;;;;;5053371;28;20068;-76
2022/04/06 05:19:50;;;;;;;40.58;16.13;;;;;;;;;;5051902;28;20418;-76
2022/04/06 05:22:15;;;;;;;46.33;18.70;;;;;;;;;;5053109;28;20021;-75
2022/04/06 05:24:41;;;;;;;44.90;18.30;;;;;;;;;;5053804;28;20381;-76
2022/04/06 05:27:06;;;;;;;43.95;17.80;;;;;;;;;;5054520;28;20033;-75
2022/04/06 05:29:32;;;;;;;47.53;19.88;;;;;;;;;;5054554;28;20025;-75
2022/04/06 05:31:57;;;;;;;48.92;19.33;;;;;;;;;;5054817;28;20485;-76
2022/04/06 05:34:23;;;;;;;47.05;17.33;;;;;;;;;;5037361;28;20095;-76
2022/04/06 05:36:48;;;;;;;41.47;16.63;;;;;;;;;;5055093;28;20029;-76
2022/04/06 05:39:14;;;;;;;43.53;15.32;;;;;;;;;;5055517;28;20032;-76
2022/04/06 05:41:39;;;;;;;41.15;15.45;;;;;;;;;;5055180;28;20098;-76
2022/04/06 05:44:05;;;;;;;37.92;15.43;;;;;;;;;;5054336;28;20033;-76
2022/04/06 05:46:30;;;;;;;33.55;14.80;;;;;;;;;;5036429;28;20412;-76
2022/04/06 05:48:56;;;;;;;38.53;14.77;;;;;;;;;;5053849;28;20084;-76
2022/04/06 05:51:21;;;;;;;46.53;14.43;;;;;;;;;;5054089;28;20025;-73
2022/04/06 05:53:47;;;;;;;39.83;14.07;;;;;;;;;;5036795;28;20035;-77
2022/04/06 05:56:13;;;;;;;38.50;13.80;;;;;;;;;;5034742;28;20032;-74
2022/04/06 05:58:38;;;;;;;32.08;13.20;;;;;;;;;;5049578;28;20032;-74
2022/04/06 06:01:04;;;;;;;28.45;13.88;;;;;;;;;;5053958;28;20490;-73
2022/04/06 06:03:29;;;;;;;28.35;15.18;;;;;;;;;;5036187;28;20039;-74
2022/04/06 06:05:55;;;;;;;37.22;17.42;;;;;;;;;;5053638;28;20115;-75
2022/04/06 06:08:20;;;;;;;37.15;18.48;;;;;;;;;;5035649;28;20047;-74
2022/04/06 06:10:46;;;;;;;30.40;13.32;;;;;;;;;;5052692;28;20029;-75
2022/04/06 06:13:12;;;;;;;21.58;11.57;;;;;;;;;;5052873;28;20036;-76
2022/04/06 06:15:37;;;;;;;22.05;12.30;;;;;;;;;;5053522;28;20043;-76
2022/04/06 06:18:03;;;;;;;20.60;11.98;;;;;;;;;;5053601;28;20040;-75
2022/04/06 06:20:29;;;;;;;28.15;11.68;;;;;;;;;;5053332;28;20032;-75
2022/04/06 06:22:54;;;;;;;25.85;11.63;;;;;;;;;;5033982;28;20044;-77
2022/04/06 06:25:20;;;;;;;29.10;12.32;;;;;;;;;;5053068;28;20060;-76
2022/04/06 06:27:46;;;;;;;39.03;22.33;;;;;;;;;;5053887;28;20033;-76
2022/04/06 06:30:12;;;;;;;25.40;14.25;;;;;;;;;;5020297;28;20040;-76
2022/04/06 06:32:38;;;;;;;34.40;13.02;;;;;;;;;;5057776;28;20028;-77
2022/04/06 06:35:04;;;;;;;28.65;14.77;;;;;;;;;;5051822;28;20029;-79
2022/04/06 06:37:30;;;;;;;31.95;15.35;;;;;;;;;;5052416;28;20048;-74
2022/04/06 06:39:55;;;;;;;27.17;14.52;;;;;;;;;;5052111;28;20028;-73
2022/04/06 06:42:21;;;;;;;27.90;12.80;;;;;;;;;;5033670;28;20072;-74
2022/04/06 06:44:47;;;;;;;30.65;13.70;;;;;;;;;;5023278;28;20025;-74
2022/04/06 06:47:12;;;;;;;34.55;14.50;;;;;;;;;;5047135;28;20116;-73
2022/04/06 06:49:45;;;;;;;27.63;13.18;;;;;;;;;;5017751;28;20021;-75
2022/04/06 06:52:11;;;;;;;31.58;14.35;;;;;;;;;;5051844;28;20430;-75
2022/04/06 06:54:37;;;;;;;29.42;12.90;;;;;;;;;;5022663;28;20071;-72
2022/04/06 06:57:03;;;;;;;26.85;12.55;;;;;;;;;;5063519;28;20119;-73
2022/04/06 06:59:28;;;;;;;22.63;13.70;;;;;;;;;;5055152;28;20124;-74
2022/04/06 07:01:54;;;;;;;28.83;14.65;;;;;;;;;;5034963;28;20037;-75
2022/04/06 07:04:22;;;;;;;22.27;13.88;;;;;;;;;;5036871;28;20030;-76
2022/04/06 07:06:49;;;;;;;31.75;13.90;;;;;;;;;;5046961;28;20033;-75
2022/04/06 07:09:14;;;;;;;32.70;14.50;;;;;;;;;;5052122;28;20052;-75
2022/04/06 07:11:40;;;;;;;31.05;14.93;;;;;;;;;;5024190;28;20052;-72
2022/04/06 07:14:05;;;;;;;31.80;15.32;;;;;;;;;;5050478;28;20033;-74
2022/04/06 07:16:31;;;;;;;30.38;14.93;;;;;;;;;;5045666;28;20028;-74
2022/04/06 07:18:56;;;;;;;33.47;14.25;;;;;;;;;;5047288;28;20033;-73
2022/04/06 07:21:22;;;;;;;34.35;14.43;;;;;;;;;;5048135;28;20025;-72
2022/04/06 07:23:47;;;;;;;29.50;14.70;;;;;;;;;;5054317;28;20021;-74
2022/04/06 07:26:16;;;;;;;34.17;14.77;;;;;;;;;;5053448;28;20021;-74
2022/04/06 07:28:45;;;;;;;25.85;13.45;;;;;;;;;;5043916;28;20052;-73
2022/04/06 07:31:13;;;;;;;24.03;12.90;;;;;;;;;;5032804;28;20025;-74
2022/04/06 07:33:40;;;;;;;24.50;13.32;;;;;;;;;;5021186;28;20026;-73
2022/04/06 07:36:06;;;;;;;29.40;12.85;;;;;;;;;;5033583;28;20075;-72
2022/04/06 07:38:31;;;;;;;25.33;15.05;;;;;;;;;;5031924;28;20022;-73
2022/04/06 07:40:57;;;;;;;57.75;28.98;;;;;;;;;;5021812;28;20459;-73
2022/04/06 07:43:23;;;;;;;43.75;19.83;;;;;;;;;;5029001;28;20021;-73
2022/04/06 07:45:49;;;;;;;25.65;14.25;;;;;;;;;;5052822;28;20036;-74
2022/04/06 07:48:14;;;;;;;25.02;13.23;;;;;;;;;;5057075;28;20044;-75
2022/04/06 07:50:40;;;;;;;38.70;14.27;;;;;;;;;;5042550;28;20389;-75
2022/04/06 07:53:05;;;;;;;33.03;14.88;;;;;;;;;;5028455;28;20025;-74
2022/04/06 07:55:31;;;;;;;50.17;15.43;;;;;;;;;;5037399;28;20053;-76
2022/04/06 07:57:56;;;;;;;37.50;13.93;;;;;;;;;;5036072;28;20109;-74
2022/04/06 08:00:22;;;;;;;33.30;16.15;;;;;;;;;;5018208;28;20025;-75
2022/04/06 08:02:48;;;;;;;27.27;14.13;;;;;;;;;;5042844;28;20049;-75
2022/04/06 08:05:14;;;;;;;32.63;15.13;;;;;;;;;;5026500;28;20412;-75
2022/04/06 08:07:43;;;;;;;33.42;18.55;;;;;;;;;;5031071;28;20033;-74
2022/04/06 08:10:09;;;;;;;30.30;14.55;;;;;;;;;;5030421;28;20028;-73
2022/04/06 08:12:35;;;;;;;34.42;15.13;;;;;;;;;;5040268;28;20362;-74
2022/04/06 08:15:02;;;;;;;36.17;14.73;;;;;;;;;;5030703;28;20059;-73
2022/04/06 08:17:30;;;;;;;36.85;14.48;;;;;;;;;;5046356;28;20032;-76
2022/04/06 08:19:55;;;;;;;37.97;14.52;;;;;;;;;;5034530;28;20036;-75
2022/04/06 08:22:24;;;;;;;39.95;12.65;;;;;;;;;;5050510;28;20107;-74
2022/04/06 08:24:49;;;;;;;27.77;13.35;;;;;;;;;;5037126;28;20142;-74
2022/04/06 08:27:18;;;;;;;32.05;12.85;;;;;;;;;;5068378;28;20131;-74
2022/04/06 08:29:53;;;;;;;29.65;11.95;;;;;;;;;;5052875;28;20052;-74
2022/04/06 08:32:19;;;;;;;26.33;12.52;;;;;;;;;;5058065;28;20032;-75
2022/04/06 08:34:50;;;;;;;38.13;11.30;;;;;;;;;;5018429;28;20032;-73
2022/04/06 08:37:54;;;;;;;36.00;12.35;;;;;;;;;;5041054;28;20414;-74
2022/04/06 08:40:20;;;;;;;27.20;11.65;;;;;;;;;;5049243;28;20028;-75
2022/04/06 08:42:45;;;;;;;21.77;10.52;;;;;;;;;;5029421;28;20075;-74
2022/04/06 08:45:11;;;;;;;24.92;10.85;;;;;;;;;;5022696;28;20144;-75
2022/04/06 08:47:36;;;;;;;19.00;10.45;;;;;;;;;;5036754;28;20029;-76
2022/04/06 08:50:05;;;;;;;22.45;10.38;;;;;;;;;;5037748;28;20029;-74
2022/04/06 08:52:34;;;;;;;23.90;10.80;;;;;;;;;;5040868;28;20025;-74
2022/04/06 08:55:00;;;;;;;40.65;12.02;;;;;;;;;;5027096;28;20060;-76
2022/04/06 08:57:26;;;;;;;26.95;11.48;;;;;;;;;;5016500;28;20443;-76
2022/04/06 08:59:54;;;;;;;18.45;10.68;;;;;;;;;;5017515;28;20045;-79
2022/04/06 09:02:20;;;;;;;29.08;11.35;;;;;;;;;;5026122;28;20128;-77
2022/04/06 09:04:52;;;;;;;21.98;11.57;;;;;;;;;;5034610;28;20085;-77
2022/04/06 09:07:20;;;;;;;22.23;10.52;;;;;;;;;;5039635;28;20029;-77
2022/04/06 09:09:50;;;;;;;26.27;10.33;;;;;;;;;;5032611;28;20036;-76
2022/04/06 09:12:21;;;;;;;22.52;10.73;;;;;;;;;;5033243;28;20125;-76
2022/04/06 09:14:47;;;;;;;20.27;10.57;;;;;;;;;;5049693;28;20032;-78
2022/04/06 09:17:20;;;;;;;15.95;9.85;;;;;;;;;;5033269;28;20037;-77
2022/04/06 09:19:47;;;;;;;18.40;9.70;;;;;;;;;;4999323;28;20025;-78
2022/04/06 09:22:12;;;;;;;20.42;9.90;;;;;;;;;;4999445;28;20025;-81
2022/04/06 09:24:38;;;;;;;20.30;9.75;;;;;;;;;;5016560;28;20028;-79
2022/04/06 09:27:04;;;;;;;16.48;9.52;;;;;;;;;;5034220;28;20033;-79
2022/04/06 09:29:35;;;;;;;16.67;8.60;;;;;;;;;;5034774;28;20083;-80
2022/04/06 09:32:10;;;;;;;14.95;8.45;;;;;;;;;;5002129;28;20508;-82
2022/04/06 09:34:37;;;;;;;19.98;9.05;;;;;;;;;;5034147;28;20021;-80
2022/04/06 09:37:22;;;;;;;17.85;8.98;;;;;;;;;;5019649;28;20147;-81
2022/04/06 09:39:48;;;;;;;15.15;8.25;;;;;;;;;;5017877;28;20037;-83
2022/04/06 09:42:23;;;;;;;16.13;8.25;;;;;;;;;;5017038;28;20060;-76
2022/04/06 09:47:40;;;;;;;21.00;7.35;;;;;;;;;;5018175;28;20100;-76
2022/04/06 09:50:17;;;;;;;17.80;8.82;;;;;;;;;;5033083;28;20108;-78
2022/04/06 09:52:43;;;;;;;14.20;8.80;;;;;;;;;;5033408;28;20112;-76
2022/04/06 09:55:10;;;;;;;15.10;7.22;;;;;;;;;;5050373;28;20359;-75
2022/04/06 09:57:47;;;;;;;9.63;6.03;;;;;;;;;;5015993;28;20029;-76
2022/04/06 10:00:16;;;;;;;11.23;5.47;;;;;;;;;;5033782;28;20025;-77
2022/04/06 10:02:42;;;;;;;11.93;6.03;;;;;;;;;;5017076;28;20042;-77
2022/04/06 10:05:10;;;;;;;11.35;6.22;;;;;;;;;;5016520;28;20048;-77
2022/04/06 10:07:36;;;;;;;12.05;6.03;;;;;;;;;;5016799;28;20553;-77
2022/04/06 10:10:01;;;;;;;10.30;5.32;;;;;;;;;;5016805;28;20071;-77
2022/04/06 10:12:27;;;;;;;19.77;9.25;;;;;;;;;;5016122;28;20032;-78
2022/04/06 10:14:53;;;;;;;10.65;6.07;;;;;;;;;;5034118;28;20061;-77
2022/04/06 10:17:18;;;;;;;11.25;5.18;;;;;;;;;;5016411;28;20447;-78
2022/04/06 10:19:47;;;;;;;13.93;5.22;;;;;;;;;;4999871;28;20040;-78
2022/04/06 10:22:22;;;;;;;11.32;5.22;;;;;;;;;;5016572;28;20026;-78
2022/04/06 10:24:55;;;;;;;16.98;5.68;;;;;;;;;;5000007;28;20057;-78
2022/04/06 10:27:25;;;;;;;11.60;5.10;;;;;;;;;;5049461;28;20041;-79
2022/04/06 10:30:05;;;;;;;;;;;;;;;;;;5016542;28;20091;-78
2022/04/06 10:32:34;;;;;;;10.40;4.97;;;;;;;;;;5033490;28;19943;-78
2022/04/06 10:35:28;;;;;;;8.68;4.90;;;;;;;;;;5033949;28;20029;-78
2022/04/06 10:37:56;;;;;;;14.68;4.75;;;;;;;;;;5049146;28;20034;-78
2022/04/06 10:40:24;;;;;;;13.55;9.13;;;;;;;;;;5033812;28;20029;-77
2022/04/06 10:42:50;;;;;;;11.13;4.90;;;;;;;;;;5033272;28;20041;-78
2022/04/06 10:45:36;;;;;;;7.78;4.57;;;;;;;;;;5034826;28;20358;-77
2022/04/06 10:48:07;;;;;;;7.85;4.43;;;;;;;;;;5003467;28;20034;-78
2022/04/06 10:50:33;;;;;;;7.95;4.32;;;;;;;;;;5037601;28;20443;-78
2022/04/06 10:53:20;;;;;;;8.35;4.30;;;;;;;;;;5020000;28;20029;-77
2022/04/06 10:56:03;;;;;;;15.45;4.15;;;;;;;;;;5038169;28;20029;-79
2022/04/06 10:58:49;;;;;;;8.45;3.72;;;;;;;;;;5037570;28;20055;-78
2022/04/06 11:01:16;;;;;;;6.95;3.90;;;;;;;;;;5002388;28;20059;-79
2022/04/06 11:03:53;;;;;;;11.90;3.75;;;;;;;;;;5019834;28;20047;-78
2022/04/06 11:06:41;;;;;;;10.38;4.20;;;;;;;;;;5019633;28;20029;-78
2022/04/06 11:12:20;;;;;;;8.55;3.70;;;;;;;;;;5037252;28;20052;-78
2022/04/06 11:14:47;;;;;;;6.30;3.90;;;;;;;;;;5020729;28;20033;-78
2022/04/06 11:17:38;;;;;;;5.38;4.00;;;;;;;;;;5026339;28;20025;-78
2022/04/06 11:20:15;;;;;;;7.43;3.58;;;;;;;;;;5058818;28;20435;-78
2022/04/06 11:22:49;;;;;;;9.00;3.92;;;;;;;;;;5077145;28;20416;-78
2022/04/06 11:25:19;;;;;;;7.63;4.65;;;;;;;;;;5077183;28;20021;-78
2022/04/06 11:27:45;;;;;;;19.50;4.68;;;;;;;;;;5059443;28;20036;-80
2022/04/06 11:30:13;;;;;;;11.75;3.90;;;;;;;;;;5075983;28;20207;-79
2022/04/06 11:32:53;;;;;;;6.30;3.60;;;;;;;;;;5076816;28;20043;-79
2022/04/06 11:35:18;;;;;;;10.27;3.60;;;;;;;;;;5076613;28;20059;-80
2022/04/06 11:37:48;;;;;;;5.55;3.30;;;;;;;;;;5077668;28;20454;-78
2022/04/06 11:40:24;;;;;;;4.20;3.30;;;;;;;;;;5058145;28;20036;-78
2022/04/06 11:42:50;;;;;;;5.03;3.20;;;;;;;;;;5075932;28;20051;-78
2022/04/06 11:45:20;;;;;;;13.70;3.47;;;;;;;;;;5076371;28;20024;-78
2022/04/06 11:47:47;;;;;;;;;;;;;;;;;;5076771;28;20107;-77
2022/04/06 11:50:14;;;;;;;15.32;3.28;;;;;;;;;;5058815;28;19955;-78
2022/04/06 11:52:41;;;;;;;6.93;3.03;;;;;;;;;;5076685;28;20047;-78
2022/04/06 11:55:07;;;;;;;6.57;2.97;;;;;;;;;;5042432;28;20103;-78
2022/04/06 11:57:42;;;;;;;8.27;3.40;;;;;;;;;;5058903;28;20127;-78
2022/04/06 12:00:09;;;;;;;4.88;2.92;;;;;;;;;;5076328;28;20113;-79
2022/04/06 12:02:55;;;;;;;9.05;2.88;;;;;;;;;;5076253;28;20031;-79
2022/04/06 12:05:21;;;;;;;5.65;2.60;;;;;;;;;;5058530;28;20032;-79
2022/04/06 12:07:46;;;;;;;6.40;3.03;;;;;;;;;;5076020;28;20090;-79
2022/04/06 12:10:12;;;;;;;5.82;2.97;;;;;;;;;;5058472;28;20070;-80
2022/04/06 12:12:38;;;;;;;5.43;2.60;;;;;;;;;;5059998;28;20041;-79
2022/04/06 12:15:07;;;;;;;3.67;2.65;;;;;;;;;;5059263;28;20040;-78
2022/04/06 12:17:33;;;;;;;5.13;2.67;;;;;;;;;;5058929;28;20040;-77
2022/04/06 12:19:59;;;;;;;4.57;2.40;;;;;;;;;;5058370;28;20047;-78
2022/04/06 12:22:25;;;;;;;10.50;2.45;;;;;;;;;;5058530;28;20055;-77
2022/04/06 12:24:51;;;;;;;5.65;2.70;;;;;;;;;;5076140;28;20024;-77
2022/04/06 12:27:29;;;;;;;6.28;2.20;;;;;;;;;;5075866;28;20085;-77
2022/04/06 12:30:08;;;;;;;3.97;2.30;;;;;;;;;;5076056;28;20528;-77
2022/04/06 12:32:44;;;;;;;4.63;2.45;;;;;;;;;;5076013;28;20021;-77
2022/04/06 12:35:20;;;;;;;4.20;2.28;;;;;;;;;;5075661;28;20043;-77
2022/04/06 12:37:46;;;;;;;6.75;2.03;;;;;;;;;;5076000;28;20119;-77
2022/04/06 12:40:25;;;;;;;3.17;1.52;;;;;;;;;;5075542;28;20025;-77
2022/04/06 12:42:51;;;;;;;3.88;1.50;;;;;;;;;;5042536;28;20381;-77
2022/04/06 12:45:18;;;;;;;7.18;1.70;;;;;;;;;;5057500;28;20116;-77
2022/04/06 12:47:44;;;;;;;2.53;1.58;;;;;;;;;;5058098;28;20040;-78
2022/04/06 12:50:19;;;;;;;4.35;1.60;;;;;;;;;;5057715;28;20024;-77
2022/04/06 12:53:03;;;;;;;3.35;1.58;;;;;;;;;;5057526;28;20025;-78
2022/04/06 12:55:29;;;;;;;6.35;1.30;;;;;;;;;;5059937;28;20032;-77
2022/04/06 12:58:13;;;;;;;2.67;1.55;;;;;;;;;;5076558;28;20445;-77
2022/04/06 13:00:39;;;;;;;2.38;1.23;;;;;;;;;;5058661;28;20047;-77
2022/04/06 13:03:04;;;;;;;1.55;1.30;;;;;;;;;;5075560;28;20029;-77
2022/04/06 13:05:31;;;;;;;1.15;1.00;;;;;;;;;;5057312;28;20021;-78
2022/04/06 13:07:56;;;;;;;1.85;1.40;;;;;;;;;;5056903;28;20024;-77
2022/04/06 13:10:35;;;;;;;5.97;1.40;;;;;;;;;;5074977;28;20445;-76
2022/04/06 13:13:01;;;;;;;2.80;1.70;;;;;;;;;;5058073;28;20028;-77
2022/04/06 13:15:26;;;;;;;3.38;1.98;;;;;;;;;;5075032;28;20082;-77
2022/04/06 13:17:52;;;;;;;6.28;2.20;;;;;;;;;;5074839;28;20102;-77
2022/04/06 13:20:21;;;;;;;4.88;2.22;;;;;;;;;;5073687;28;20039;-78
2022/04/06 13:22:47;;;;;;;3.97;2.30;;;;;;;;;;5056607;28;20128;-77
2022/04/06 13:25:13;;;;;;;6.18;1.85;;;;;;;;;;5074145;28;20028;-77
2022/04/06 13:27:39;;;;;;;8.68;2.80;;;;;;;;;;5074350;28;20361;-77
2022/04/06 13:30:05;;;;;;;4.60;2.30;;;;;;;;;;5074417;28;20032;-77
2022/04/06 13:32:31;;;;;;;4.90;1.60;;;;;;;;;;5074498;28;20041;-77
2022/04/06 13:34:56;;;;;;;5.00;1.90;;;;;;;;;;5074603;28;20378;-77
2022/04/06 13:37:22;;;;;;;3.92;1.95;;;;;;;;;;5056245;28;20032;-77
2022/04/06 13:39:47;;;;;;;7.90;1.73;;;;;;;;;;5074348;28;20025;-77
2022/04/06 13:42:15;;;;;;;6.43;1.75;;;;;;;;;;5074298;28;20036;-77
2022/04/06 13:44:40;;;;;;;7.82;1.67;;;;;;;;;;5074283;28;20048;-77
2022/04/06 13:47:06;;;;;;;4.35;2.10;;;;;;;;;;5074502;28;20067;-77
2022/04/06 13:49:31;;;;;;;2.60;1.35;;;;;;;;;;5056958;28;20024;-78
2022/04/06 13:51:57;;;;;;;4.10;1.50;;;;;;;;;;5074048;28;20031;-77
2022/04/06 13:54:24;;;;;;;2.55;1.80;;;;;;;;;;5074465;28;20024;-77
2022/04/06 13:56:49;;;;;;;2.85;1.50;;;;;;;;;;5056290;28;20087;-77
2022/04/06 13:59:15;;;;;;;4.35;1.75;;;;;;;;;;5074151;28;20028;-78
2022/04/06 14:01:41;;;;;;;2.97;1.85;;;;;;;;;;5057278;28;20652;-78
2022/04/06 14:04:06;;;;;;;9.25;1.85;;;;;;;;;;5074144;28;20052;-78
2022/04/06 14:06:32;;;;;;;3.45;2.10;;;;;;;;;;5073763;28;20404;-77
2022/04/06 14:08:57;;;;;;;7.10;1.90;;;;;;;;;;5074569;28;20056;-77
2022/04/06 14:11:23;;;;;;;8.88;2.25;;;;;;;;;;5074079;28;20464;-77
2022/04/06 14:13:49;;;;;;;2.70;2.03;;;;;;;;;;5074264;28;20484;-78
2022/04/06 14:16:15;;;;;;;6.43;2.05;;;;;;;;;;5073963;28;20028;-77
2022/04/06 14:18:40;;;;;;;9.88;2.10;;;;;;;;;;5039264;28;20028;-77
2022/04/06 14:21:06;;;;;;;2.25;1.70;;;;;;;;;;5073665;28;20025;-76
2022/04/06 14:23:33;;;;;;;2.65;1.83;;;;;;;;;;5056304;28;20036;-77
2022/04/06 14:25:58;;;;;;;3.35;1.50;;;;;;;;;;5073899;28;20032;-77
2022/04/06 14:28:24;;;;;;;4.57;1.80;;;;;;;;;;5073987;28;20033;-77
2022/04/06 14:30:49;;;;;;;2.85;1.60;;;;;;;;;;5074088;28;20032;-77
2022/04/06 14:33:19;;;;;;;8.63;2.10;;;;;;;;;;5073515;28;20029;-77
2022/04/06 14:35:45;;;;;;;4.72;2.80;;;;;;;;;;5073786;28;20028;-77
2022/04/06 14:38:12;;;;;;;3.17;1.83;;;;;;;;;;5055877;28;20381;-77
2022/04/06 14:40:37;;;;;;;2.58;1.48;;;;;;;;;;5074025;28;20363;-77